createdAt,value
2023-01-30T00:02:21.104Z,96.30
2023-01-30T00:05:07.854Z,96.20
2023-01-30T00:07:54.109Z,96.20
2023-01-30T00:10:40.338Z,96.20
2023-01-30T00:13:27.409Z,96.30
2023-01-30T00:16:13.818Z,96.30
2023-01-30T00:19:00.022Z,96.40
2023-01-30T00:21:46.027Z,96.20
2023-01-30T00:24:32.310Z,96.10
2023-01-30T00:27:18.702Z,95.90
2023-01-30T00:30:07.183Z,95.90
2023-01-30T00:32:59.739Z,96.00
2023-01-30T00:35:46.988Z,96.10
2023-01-30T00:38:33.731Z,96.10
2023-01-30T00:41:20.251Z,96.00
2023-01-30T00:44:25.139Z,96.00
2023-01-30T00:47:12.243Z,96.00
2023-01-30T00:49:58.516Z,96.20
2023-01-30T00:52:44.419Z,96.20
2023-01-30T00:55:31.444Z,96.30
2023-01-30T00:58:17.350Z,96.40
2023-01-30T01:01:03.325Z,96.40
2023-01-30T01:03:49.547Z,96.30
2023-01-30T01:06:35.378Z,96.40
2023-01-30T01:09:21.488Z,96.40
2023-01-30T01:12:08.342Z,96.40
2023-01-30T01:14:54.550Z,96.30
2023-01-30T01:17:42.309Z,96.50
2023-01-30T01:20:29.566Z,96.40
2023-01-30T01:23:15.960Z,96.40
2023-01-30T01:26:02.621Z,96.50
2023-01-30T01:28:49.341Z,96.50
2023-01-30T01:31:35.713Z,96.50
2023-01-30T01:34:21.629Z,96.40
2023-01-30T01:37:08.139Z,96.30
2023-01-30T01:40:13.677Z,96.40
2023-01-30T01:42:59.550Z,96.20
2023-01-30T01:45:47.481Z,96.20
2023-01-30T01:48:49.036Z,96.20
2023-01-30T01:51:46.849Z,96.20
2023-01-30T01:54:47.193Z,96.20
2023-01-30T01:57:55.744Z,96.20
2023-01-30T02:00:42.618Z,96.40
2023-01-30T02:03:32.669Z,96.50
2023-01-30T02:06:20.103Z,96.60
2023-01-30T02:09:08.554Z,96.70
2023-01-30T02:11:58.886Z,96.80
2023-01-30T02:14:45.634Z,96.70
2023-01-30T02:17:34.640Z,96.70
2023-01-30T02:21:05.136Z,96.80
2023-01-30T02:24:13.177Z,96.90
2023-01-30T02:27:14.259Z,96.80
2023-01-30T02:30:03.190Z,96.80
2023-01-30T02:33:00.938Z,96.80
2023-01-30T02:36:06.835Z,96.90
2023-01-30T02:39:01.759Z,96.80
2023-01-30T02:42:14.670Z,96.90
2023-01-30T02:45:11.864Z,96.90
2023-01-30T02:48:11.496Z,97.00
2023-01-30T02:51:12.107Z,96.90
2023-01-30T02:53:59.763Z,97.00
2023-01-30T02:56:52.260Z,97.00
2023-01-30T02:59:43.302Z,97.00
2023-01-30T03:02:41.326Z,97.10
2023-01-30T03:05:52.155Z,96.90
2023-01-30T03:09:03.162Z,96.80
2023-01-30T03:11:57.122Z,96.80
2023-01-30T03:14:48.845Z,96.80
2023-01-30T03:17:37.758Z,96.80
2023-01-30T03:20:24.179Z,96.80
2023-01-30T03:23:10.758Z,96.80
2023-01-30T03:25:57.051Z,96.60
2023-01-30T03:28:45.045Z,96.80
2023-01-30T03:31:31.249Z,96.90
2023-01-30T03:34:18.780Z,97.00
2023-01-30T03:37:05.603Z,97.00
2023-01-30T03:39:54.606Z,97.10
2023-01-30T03:42:40.864Z,97.20
2023-01-30T03:45:28.373Z,97.30
2023-01-30T03:48:14.231Z,97.30
2023-01-30T03:51:00.254Z,97.10
2023-01-30T03:53:46.187Z,96.80
2023-01-30T03:56:32.761Z,96.80
2023-01-30T03:59:19.340Z,96.80
2023-01-30T04:02:12.049Z,96.70
2023-01-30T04:04:58.775Z,96.80
2023-01-30T04:07:45.185Z,96.80
2023-01-30T04:10:31.245Z,96.70
2023-01-30T04:13:17.123Z,96.70
2023-01-30T04:16:18.986Z,96.60
2023-01-30T04:19:24.000Z,96.60
2023-01-30T04:22:10.359Z,96.50
2023-01-30T04:24:57.333Z,96.60
2023-01-30T04:27:44.439Z,96.40
2023-01-30T04:30:34.853Z,96.30
2023-01-30T04:33:41.810Z,96.40
2023-01-30T04:36:31.261Z,96.40
2023-01-30T04:39:19.437Z,96.30
2023-01-30T04:42:06.511Z,96.00
2023-01-30T04:45:00.542Z,96.00
2023-01-30T04:47:48.536Z,96.10
2023-01-30T04:50:34.980Z,96.20
2023-01-30T04:53:21.617Z,96.10
2023-01-30T04:56:08.140Z,96.10
2023-01-30T04:58:54.429Z,96.30
2023-01-30T05:01:42.690Z,96.20
2023-01-30T05:04:29.155Z,96.10
2023-01-30T05:07:15.246Z,96.10
2023-01-30T05:10:02.896Z,96.00
2023-01-30T05:12:49.310Z,96.10
2023-01-30T05:15:35.618Z,96.20
2023-01-30T05:18:21.576Z,96.20
2023-01-30T05:21:10.272Z,96.30
2023-01-30T05:23:57.507Z,96.10
2023-01-30T05:26:43.545Z,96.00
2023-01-30T05:29:29.971Z,96.20
2023-01-30T05:32:18.206Z,96.10
2023-01-30T05:35:04.636Z,96.10
2023-01-30T05:37:51.599Z,96.10
2023-01-30T05:40:37.608Z,96.10
2023-01-30T05:43:23.647Z,96.10
2023-01-30T05:46:12.333Z,96.10
2023-01-30T05:48:58.923Z,96.20
2023-01-30T05:51:45.088Z,96.20
2023-01-30T05:54:30.993Z,96.10
2023-01-30T05:57:17.131Z,96.00
2023-01-30T06:00:04.820Z,96.00
2023-01-30T06:02:58.884Z,95.80
2023-01-30T06:05:45.520Z,95.70
2023-01-30T06:08:32.672Z,95.90
2023-01-30T06:11:19.003Z,95.70
2023-01-30T06:14:04.767Z,95.70
2023-01-30T06:16:51.012Z,95.60
2023-01-30T06:19:36.904Z,95.70
2023-01-30T06:22:22.787Z,95.70
2023-01-30T06:25:09.410Z,95.50
2023-01-30T06:27:55.456Z,95.70
2023-01-30T06:30:42.261Z,95.50
2023-01-30T06:33:28.357Z,95.30
2023-01-30T06:36:15.046Z,95.20
2023-01-30T06:39:00.990Z,95.20
2023-01-30T06:41:47.159Z,95.20
2023-01-30T06:44:33.227Z,95.20
2023-01-30T06:47:19.634Z,95.40
2023-01-30T06:50:05.600Z,95.40
2023-01-30T06:52:52.825Z,95.50
2023-01-30T06:55:39.100Z,95.30
2023-01-30T06:58:25.312Z,95.20
2023-01-30T07:01:12.043Z,94.90
2023-01-30T07:03:58.140Z,94.80
2023-01-30T07:06:44.803Z,94.50
2023-01-30T07:09:30.899Z,94.70
2023-01-30T07:12:16.882Z,94.40
2023-01-30T07:15:03.200Z,93.80
2023-01-30T07:17:49.286Z,93.70
2023-01-30T07:20:35.220Z,93.40
2023-01-30T07:23:21.148Z,93.00
2023-01-30T07:26:07.241Z,93.00
2023-01-30T07:28:53.192Z,92.80
2023-01-30T07:31:39.138Z,92.80
2023-01-30T07:34:25.029Z,92.60
2023-01-30T07:37:10.901Z,92.40
2023-01-30T07:39:57.147Z,92.50
2023-01-30T07:42:43.450Z,92.30
2023-01-30T07:45:35.544Z,92.20
2023-01-30T07:48:21.433Z,92.10
2023-01-30T07:51:07.695Z,91.80
2023-01-30T07:53:53.882Z,91.60
2023-01-30T07:56:40.117Z,91.20
2023-01-30T07:59:26.199Z,91.20
2023-01-30T08:02:12.326Z,91.20
2023-01-30T08:04:58.281Z,90.00
2023-01-30T08:07:44.248Z,90.20
2023-01-30T08:10:30.260Z,89.60
2023-01-30T08:13:16.410Z,89.80
2023-01-30T08:16:04.015Z,89.70
2023-01-30T08:18:50.135Z,89.80
2023-01-30T08:21:36.114Z,89.90
2023-01-30T08:24:22.083Z,90.30
2023-01-30T08:27:08.561Z,90.10
2023-01-30T08:29:54.869Z,90.10
2023-01-30T08:32:40.757Z,90.30
2023-01-30T08:35:27.566Z,90.40
2023-01-30T08:38:14.314Z,90.30
2023-01-30T08:41:01.103Z,90.70
2023-01-30T08:43:47.144Z,90.30
2023-01-30T08:46:33.147Z,88.40
2023-01-30T08:49:19.242Z,87.20
2023-01-30T08:52:05.482Z,87.20
2023-01-30T08:54:51.621Z,87.20
2023-01-30T08:57:37.685Z,86.50
2023-01-30T09:00:23.990Z,86.50
2023-01-30T09:03:10.303Z,85.90
2023-01-30T09:05:56.574Z,86.30
2023-01-30T09:08:42.893Z,87.90
2023-01-30T09:11:28.706Z,88.10
2023-01-30T09:14:19.888Z,88.50
2023-01-30T09:17:06.218Z,88.30
2023-01-30T09:19:52.611Z,87.40
2023-01-30T09:22:38.787Z,87.30
2023-01-30T09:25:24.743Z,86.10
2023-01-30T09:28:10.944Z,85.30
2023-01-30T09:31:01.669Z,84.70
2023-01-30T09:33:48.110Z,82.60
2023-01-30T09:36:34.278Z,84.00
2023-01-30T09:39:20.183Z,84.00
2023-01-30T09:42:06.124Z,83.40
2023-01-30T09:44:57.982Z,82.70
2023-01-30T09:48:02.546Z,82.60
2023-01-30T09:51:13.476Z,84.00
2023-01-30T09:54:22.283Z,82.70
2023-01-30T09:57:21.134Z,82.20
2023-01-30T10:00:35.381Z,83.30
2023-01-30T10:03:31.209Z,81.30
2023-01-30T10:06:17.874Z,79.90
2023-01-30T10:09:30.148Z,81.20
2023-01-30T10:12:42.929Z,79.50
2023-01-30T10:15:32.793Z,77.30
2023-01-30T10:18:31.219Z,75.40
2023-01-30T10:21:20.299Z,75.20
2023-01-30T10:24:32.917Z,75.20
2023-01-30T10:27:21.358Z,75.20
2023-01-30T10:30:14.257Z,74.30
2023-01-30T10:33:28.632Z,74.80
2023-01-30T10:36:21.295Z,74.60
2023-01-30T10:39:49.603Z,77.10
2023-01-30T10:43:17.125Z,78.80
2023-01-30T10:46:40.544Z,76.90
2023-01-30T10:49:43.891Z,78.50
2023-01-30T10:52:47.220Z,80.50
2023-01-30T10:55:40.145Z,80.10
2023-01-30T10:58:45.696Z,82.40
2023-01-30T11:02:01.272Z,81.20
2023-01-30T11:05:04.265Z,80.70
2023-01-30T11:07:50.306Z,81.20
2023-01-30T11:10:36.392Z,82.10
2023-01-30T11:13:27.170Z,83.00
2023-01-30T11:16:13.482Z,83.60
2023-01-30T11:19:21.974Z,84.70
2023-01-30T11:22:14.559Z,84.50
2023-01-30T11:25:14.775Z,85.20
2023-01-30T11:28:04.153Z,85.50
2023-01-30T11:31:01.529Z,85.30
2023-01-30T11:34:01.440Z,84.00
2023-01-30T11:36:47.968Z,83.40
2023-01-30T11:39:34.854Z,84.00
2023-01-30T11:42:29.799Z,83.40
2023-01-30T11:45:18.669Z,84.00
2023-01-30T11:48:31.273Z,83.70
2023-01-30T11:51:20.110Z,83.30
2023-01-30T11:54:16.212Z,83.40
2023-01-30T11:57:06.372Z,84.60
2023-01-30T11:59:59.049Z,85.10
2023-01-30T12:02:48.089Z,84.90
2023-01-30T12:05:42.294Z,85.10
2023-01-30T12:08:43.607Z,85.80
2023-01-30T12:11:45.196Z,86.00
2023-01-30T12:14:37.337Z,86.20
2023-01-30T12:17:46.550Z,87.00
2023-01-30T12:20:53.975Z,86.70
2023-01-30T12:23:49.631Z,87.40
2023-01-30T12:26:42.661Z,87.80
2023-01-30T12:29:36.258Z,87.50
2023-01-30T12:32:27.518Z,87.70
2023-01-30T12:35:18.881Z,87.80
2023-01-30T12:38:16.732Z,87.70
2023-01-30T12:41:27.291Z,87.80
2023-01-30T12:44:42.110Z,88.10
2023-01-30T12:48:00.454Z,88.20
2023-01-30T12:51:32.858Z,88.80
2023-01-30T12:54:31.188Z,88.10
2023-01-30T12:57:52.149Z,88.60
2023-01-30T13:01:03.109Z,88.10
2023-01-30T13:04:06.632Z,86.90
2023-01-30T13:06:55.382Z,87.50
2023-01-30T13:09:48.580Z,88.20
2023-01-30T13:13:14.247Z,88.40
2023-01-30T13:16:11.061Z,87.70
2023-01-30T13:19:25.485Z,87.70
2023-01-30T13:22:45.364Z,87.50
2023-01-30T13:25:34.471Z,88.20
2023-01-30T13:28:26.102Z,87.80
2023-01-30T13:31:17.682Z,88.10
2023-01-30T13:34:10.331Z,87.90
2023-01-30T13:37:07.378Z,87.20
2023-01-30T13:40:02.490Z,87.60
2023-01-30T13:43:04.688Z,87.70
2023-01-30T13:45:54.186Z,87.50
2023-01-30T13:48:40.442Z,87.80
2023-01-30T13:51:46.695Z,88.40
2023-01-30T13:54:55.036Z,88.10
2023-01-30T13:57:54.185Z,87.90
2023-01-30T14:00:51.422Z,87.40
2023-01-30T14:03:37.968Z,87.80
2023-01-30T14:06:32.512Z,87.40
2023-01-30T14:09:25.594Z,87.90
2023-01-30T14:12:24.977Z,87.40
2023-01-30T14:15:14.023Z,87.40
2023-01-30T14:18:03.027Z,87.90
2023-01-30T14:20:52.877Z,87.90
2023-01-30T14:23:41.721Z,88.20
2023-01-30T14:27:00.002Z,88.10
2023-01-30T14:29:49.512Z,88.20
2023-01-30T14:32:55.078Z,88.70
2023-01-30T14:35:41.008Z,88.30
2023-01-30T14:38:31.956Z,88.70
2023-01-30T14:41:24.332Z,89.10
2023-01-30T14:44:10.255Z,88.70
2023-01-30T14:46:58.127Z,88.80
2023-01-30T14:49:44.918Z,89.10
2023-01-30T14:52:38.086Z,89.50
2023-01-30T14:55:29.490Z,90.00
2023-01-30T14:58:18.529Z,89.70
2023-01-30T15:01:05.182Z,90.20
2023-01-30T15:03:55.120Z,90.20
2023-01-30T15:06:41.064Z,90.30
2023-01-30T15:09:30.263Z,90.20
2023-01-30T15:12:43.643Z,90.20
2023-01-30T15:15:56.536Z,90.10
2023-01-30T15:19:03.738Z,90.20
2023-01-30T15:21:58.612Z,90.10
2023-01-30T15:25:27.572Z,90.10
2023-01-30T15:28:16.593Z,90.20
2023-01-30T15:31:10.073Z,90.40
2023-01-30T15:33:59.223Z,90.30
2023-01-30T15:36:45.523Z,90.30
2023-01-30T15:39:31.530Z,90.40
2023-01-30T15:42:17.505Z,90.60
2023-01-30T15:45:12.184Z,90.70
2023-01-30T15:48:22.858Z,90.90
2023-01-30T15:51:12.477Z,91.20
2023-01-30T15:54:01.322Z,91.10
2023-01-30T15:56:49.909Z,91.20
2023-01-30T15:59:40.070Z,91.20
2023-01-30T16:02:35.143Z,91.50
2023-01-30T16:05:25.475Z,91.80
2023-01-30T16:08:21.680Z,92.10
2023-01-30T16:11:10.215Z,92.20
2023-01-30T16:13:56.902Z,92.30
2023-01-30T16:16:59.094Z,92.60
2023-01-30T16:19:46.216Z,93.00
2023-01-30T16:22:33.855Z,93.20
2023-01-30T16:25:24.049Z,93.20
2023-01-30T16:28:10.482Z,93.30
2023-01-30T16:30:59.441Z,93.40
2023-01-30T16:33:51.453Z,93.60
2023-01-30T16:36:41.089Z,93.80
2023-01-30T16:39:36.855Z,93.90
2023-01-30T16:42:26.814Z,93.90
2023-01-30T16:45:12.968Z,93.90
2023-01-30T16:48:17.649Z,93.90
2023-01-30T16:51:18.855Z,93.90
2023-01-30T16:54:05.402Z,93.80
2023-01-30T16:56:55.689Z,93.80
2023-01-30T16:59:41.770Z,93.80
2023-01-30T17:02:42.638Z,93.80
2023-01-30T17:05:41.257Z,93.70
2023-01-30T17:08:40.155Z,93.70
2023-01-30T17:11:39.750Z,93.80
2023-01-30T17:14:30.795Z,93.90
2023-01-30T17:17:18.560Z,94.00
2023-01-30T17:20:05.370Z,94.00
2023-01-30T17:22:57.742Z,94.10
2023-01-30T17:25:48.026Z,94.10
2023-01-30T17:28:33.959Z,94.40
2023-01-30T17:31:21.046Z,94.60
2023-01-30T17:34:07.597Z,94.70
2023-01-30T17:36:54.962Z,94.60
2023-01-30T17:39:40.895Z,94.50
2023-01-30T17:42:27.096Z,94.40
2023-01-30T17:45:13.078Z,94.40
2023-01-30T17:47:59.083Z,94.30
2023-01-30T17:50:45.113Z,94.40
2023-01-30T17:53:31.065Z,94.30
2023-01-30T17:56:22.432Z,94.30
2023-01-30T17:59:17.768Z,94.30
2023-01-30T18:02:04.259Z,94.30
2023-01-30T18:04:50.581Z,94.40
2023-01-30T18:07:37.018Z,94.30
2023-01-30T18:10:22.944Z,94.40
2023-01-30T18:13:09.233Z,94.30
2023-01-30T18:15:59.766Z,94.30
2023-01-30T18:18:46.115Z,94.20
2023-01-30T18:21:34.089Z,94.20
2023-01-30T18:24:20.712Z,94.20
2023-01-30T18:27:06.818Z,94.10
2023-01-30T18:29:52.763Z,94.10
2023-01-30T18:32:51.716Z,94.00
2023-01-30T18:35:39.098Z,94.00
2023-01-30T18:38:25.626Z,93.90
2023-01-30T18:41:20.731Z,94.10
2023-01-30T18:44:07.657Z,94.00
2023-01-30T18:46:53.688Z,94.00
2023-01-30T18:49:39.896Z,94.00
2023-01-30T18:52:25.959Z,94.00
2023-01-30T18:55:11.987Z,93.90
2023-01-30T18:57:59.653Z,94.00
2023-01-30T19:00:46.431Z,94.00
2023-01-30T19:03:32.713Z,94.00
2023-01-30T19:06:19.272Z,94.00
2023-01-30T19:09:05.772Z,94.10
2023-01-30T19:12:10.587Z,94.00
2023-01-30T19:14:56.820Z,94.10
2023-01-30T19:17:42.823Z,94.10
2023-01-30T19:20:29.033Z,94.00
2023-01-30T19:23:15.413Z,94.00
2023-01-30T19:26:01.678Z,94.00
2023-01-30T19:28:48.355Z,94.00
2023-01-30T19:31:34.443Z,94.10
2023-01-30T19:34:20.996Z,94.20
2023-01-30T19:37:07.366Z,94.10
2023-01-30T19:39:53.668Z,94.30
2023-01-30T19:42:43.843Z,94.30
2023-01-30T19:45:31.433Z,94.40
2023-01-30T19:48:17.814Z,94.20
2023-01-30T19:51:31.673Z,94.30
2023-01-30T19:54:18.780Z,94.10
2023-01-30T19:57:04.839Z,94.20
2023-01-30T19:59:50.686Z,94.40
2023-01-30T20:02:36.729Z,94.90
2023-01-30T20:05:23.384Z,94.80
2023-01-30T20:08:21.821Z,95.00
2023-01-30T20:11:17.749Z,95.10
2023-01-30T20:14:06.032Z,95.10
2023-01-30T20:16:52.292Z,95.00
2023-01-30T20:19:38.256Z,94.80
2023-01-30T20:22:24.307Z,95.00
2023-01-30T20:25:10.732Z,94.90
2023-01-30T20:27:56.765Z,94.90
2023-01-30T20:30:42.857Z,94.60
2023-01-30T20:33:31.169Z,94.50
2023-01-30T20:36:19.196Z,94.50
2023-01-30T20:39:07.572Z,94.40
2023-01-30T20:41:54.126Z,94.30
2023-01-30T20:44:40.117Z,94.20
2023-01-30T20:47:26.236Z,94.10
2023-01-30T20:50:13.731Z,94.10
2023-01-30T20:53:00.038Z,94.00
2023-01-30T20:55:45.952Z,93.80
2023-01-30T20:58:32.591Z,93.90
2023-01-30T21:01:23.590Z,93.70
2023-01-30T21:04:13.670Z,93.60
2023-01-30T21:07:00.511Z,93.60
2023-01-30T21:09:46.449Z,93.60
2023-01-30T21:12:32.428Z,93.70
2023-01-30T21:15:18.665Z,93.60
2023-01-30T21:18:05.285Z,93.60
2023-01-30T21:20:51.300Z,93.50
2023-01-30T21:23:38.015Z,93.50
2023-01-30T21:26:26.650Z,93.60
2023-01-30T21:29:15.041Z,93.60
2023-01-30T21:32:01.286Z,93.60
2023-01-30T21:34:47.339Z,93.70
2023-01-30T21:37:52.208Z,93.90
2023-01-30T21:40:56.583Z,94.10
2023-01-30T21:43:42.601Z,94.10
2023-01-30T21:46:29.763Z,94.20
2023-01-30T21:49:17.497Z,94.30
2023-01-30T21:52:04.029Z,94.30
2023-01-30T21:54:50.257Z,94.40
2023-01-30T21:57:36.621Z,94.40
2023-01-30T22:00:22.812Z,94.40
2023-01-30T22:03:09.129Z,94.50
2023-01-30T22:05:54.934Z,94.50
2023-01-30T22:08:41.184Z,94.60
2023-01-30T22:11:28.599Z,94.60
2023-01-30T22:14:14.829Z,94.60
2023-01-30T22:17:01.259Z,94.60
2023-01-30T22:19:47.426Z,94.60
2023-01-30T22:22:33.323Z,94.50
2023-01-30T22:25:19.519Z,94.80
2023-01-30T22:28:05.772Z,94.60
2023-01-30T22:30:51.872Z,94.60
2023-01-30T22:33:39.428Z,94.60
2023-01-30T22:36:28.150Z,94.70
2023-01-30T22:39:14.414Z,94.80
2023-01-30T22:42:00.347Z,94.70
2023-01-30T22:44:46.351Z,94.60
2023-01-30T22:47:32.137Z,94.70
2023-01-30T22:50:18.396Z,94.80
2023-01-30T22:53:04.561Z,94.60
2023-01-30T22:55:50.764Z,94.70
2023-01-30T22:58:37.339Z,94.80
2023-01-30T23:01:30.072Z,94.60
2023-01-30T23:04:21.229Z,94.30
2023-01-30T23:07:07.355Z,94.40
2023-01-30T23:09:53.312Z,94.30
2023-01-30T23:12:57.875Z,94.20
2023-01-30T23:15:46.644Z,94.10
2023-01-30T23:18:52.463Z,94.20
2023-01-30T23:21:42.052Z,94.30
2023-01-30T23:24:28.228Z,94.20
2023-01-30T23:27:14.678Z,94.20
2023-01-30T23:30:00.825Z,94.20
2023-01-30T23:32:46.985Z,94.10
2023-01-30T23:35:34.415Z,94.00
2023-01-30T23:38:20.848Z,94.00
2023-01-30T23:41:17.891Z,94.10
2023-01-30T23:44:04.439Z,94.10
2023-01-30T23:46:50.349Z,94.10
2023-01-30T23:49:36.399Z,94.20
2023-01-30T23:52:22.850Z,94.10
2023-01-30T23:55:09.453Z,94.10
2023-01-30T23:57:55.641Z,94.10
